Time;durP1;ratioP1;P1;durP2;ratioP2;P2;SDS_P1;SDS_P2;PMS_P1;PMS_P2;Temp;Humidity;BMP_temperature;BMP_pressure;BME280_temperature;BME280_humidity;BME280_pressure;Samples;Min_cycle;Max_cycle;Signal;HPM_P1;HPM_P2
2021/03/26 00:00:52;;;;;;;27.98;14.95;;;;;;;0.40;42.66;99879.35;1767981;79;21786;-61
2021/03/26 00:03:24;;;;;;;24.92;13.13;;;;;;;0.35;42.98;99878.47;1719717;81;21165;-60
2021/03/26 00:05:58;;;;;;;28.00;16.05;;;;;;;0.32;42.97;99883.62;1789565;78;21617;-61
2021/03/26 00:08:26;;;;;;;28.73;15.18;;;;;;;0.33;43.17;99885.36;1790879;78;22020;-61
2021/03/26 00:10:56;;;;;;;29.48;15.32;;;;;;;0.31;43.11;99881.47;1751826;78;21562;-61
2021/03/26 00:13:24;;;;;;;29.70;15.58;;;;;;;0.27;43.50;99881.48;1745248;80;21645;-60
2021/03/26 00:15:53;;;;;;;23.32;14.70;;;;;;;0.24;43.35;99878.87;1760687;78;21609;-61
2021/03/26 00:18:22;;;;;;;22.42;12.23;;;;;;;0.23;43.64;99883.59;1754127;79;21765;-61
2021/03/26 00:20:50;;;;;;;27.32;15.18;;;;;;;0.19;43.66;99879.73;1745367;80;22099;-62
2021/03/26 00:23:18;;;;;;;24.65;14.30;;;;;;;0.20;43.57;99885.75;1737704;81;21762;-60
2021/03/26 00:25:47;;;;;;;24.65;13.95;;;;;;;0.18;43.64;99888.77;1743685;81;21579;-60
2021/03/26 00:28:15;;;;;;;;;;;;;;;0.17;43.42;99890.50;1781530;78;21540;-63
2021/03/26 00:30:42;;;;;;;24.47;13.83;;;;;;;0.16;43.50;99885.31;1776053;78;22477;-61
2021/03/26 00:33:10;;;;;;;25.30;13.55;;;;;;;0.11;43.48;99881.84;1786138;78;21905;-60
2021/03/26 00:35:40;;;;;;;27.87;14.80;;;;;;;0.11;43.57;99883.98;1789599;78;21601;-60
2021/03/26 00:38:10;;;;;;;26.05;13.55;;;;;;;0.09;43.70;99883.56;1750217;80;21605;-60
2021/03/26 00:40:38;;;;;;;26.07;14.28;;;;;;;0.10;43.62;99882.72;1735842;80;21666;-60
2021/03/26 00:43:07;;;;;;;24.45;14.65;;;;;;;0.12;43.64;99879.70;1781954;78;21662;-60
2021/03/26 00:45:37;;;;;;;24.07;13.80;;;;;;;0.14;43.58;99887.03;1785532;78;21659;-60
2021/03/26 00:48:06;;;;;;;23.25;13.58;;;;;;;0.15;43.49;99885.75;1789753;78;21634;-60
2021/03/26 00:50:40;;;;;;;22.60;13.70;;;;;;;0.17;43.42;99879.27;1787905;78;21587;-60
2021/03/26 00:53:13;;;;;;;24.72;14.10;;;;;;;0.19;43.47;99884.05;1782833;78;21572;-60
2021/03/26 00:55:43;;;;;;;23.42;14.23;;;;;;;0.20;43.26;99883.16;1784838;77;21626;-60
2021/03/26 00:58:12;;;;;;;27.58;14.50;;;;;;;0.18;43.43;99882.30;1782614;78;22015;-60
2021/03/26 01:00:41;;;;;;;26.55;14.93;;;;;;;0.17;43.62;99885.73;1785041;78;21469;-60
2021/03/26 01:03:10;;;;;;;29.77;15.15;;;;;;;0.13;43.67;99881.41;1789123;78;21591;-61
2021/03/26 01:05:45;;;;;;;28.02;15.68;;;;;;;0.13;43.72;99887.47;1784832;78;21047;-60
2021/03/26 01:08:13;;;;;;;29.18;16.00;;;;;;;0.15;43.75;99884.45;1786408;78;21472;-60
2021/03/26 01:10:46;;;;;;;26.33;15.60;;;;;;;0.10;43.91;99886.59;1778211;78;21651;-60
2021/03/26 01:13:17;;;;;;;27.13;15.75;;;;;;;0.09;44.11;99886.14;1784228;78;21638;-61
2021/03/26 01:15:46;;;;;;;30.15;15.03;;;;;;;0.08;44.22;99892.19;1774071;78;21578;-60
2021/03/26 01:18:32;;;;;;;26.33;15.72;;;;;;;0.07;44.20;99891.30;1780402;78;21642;-60
2021/03/26 01:21:01;;;;;;;30.30;17.23;;;;;;;0.06;44.24;99888.30;1780403;78;21470;-61
2021/03/26 01:23:29;;;;;;;32.03;17.65;;;;;;;0.04;44.32;99893.90;1797629;78;22063;-60
2021/03/26 01:25:57;;;;;;;;;;;;;;;0.02;44.43;99894.73;1779775;78;21619;-60
2021/03/26 01:28:35;;;;;;;31.65;16.77;;;;;;;0.01;44.43;99893.02;1777490;77;20573;-61
2021/03/26 01:31:22;;;;;;;31.17;16.60;;;;;;;-0.02;44.33;99890.86;1782184;78;21635;-60
2021/03/26 01:33:50;;;;;;;33.67;16.90;;;;;;;0.00;44.37;99892.16;1786904;78;21558;-60
2021/03/26 01:36:19;;;;;;;33.63;18.15;;;;;;;0.01;44.50;99896.46;1780956;78;22068;-60
2021/03/26 01:38:48;;;;;;;34.40;17.98;;;;;;;0.01;44.48;99899.48;1777509;78;21655;-60
2021/03/26 01:41:27;;;;;;;35.68;18.62;;;;;;;-0.02;44.74;99897.73;1780029;77;21547;-60
2021/03/26 01:43:55;;;;;;;39.40;18.42;;;;;;;0.01;44.66;99899.05;1766206;77;21634;-61
2021/03/26 01:46:24;;;;;;;33.23;17.25;;;;;;;0.00;44.75;99898.62;1778656;78;21193;-62
2021/03/26 01:48:58;;;;;;;33.08;18.17;;;;;;;-0.03;44.98;99900.75;1778996;78;22111;-64
2021/03/26 01:51:34;;;;;;;37.55;18.98;;;;;;;0.00;44.91;99898.62;1760161;79;21667;-63
2021/03/26 01:54:05;;;;;;;34.58;20.17;;;;;;;0.01;45.03;99902.92;1778099;79;21194;-62
2021/03/26 01:56:36;;;;;;;38.10;19.87;;;;;;;-0.03;45.11;99903.34;1782594;79;21690;-60
2021/03/26 01:59:18;;;;;;;43.45;20.62;;;;;;;-0.02;45.09;99908.95;1775421;79;21653;-60
2021/03/26 02:01:50;;;;;;;41.58;21.50;;;;;;;-0.02;45.23;99909.36;1779323;79;21659;-59
2021/03/26 02:04:29;;;;;;;39.13;19.85;;;;;;;-0.03;45.41;99912.38;1776627;79;21180;-59
2021/03/26 02:07:00;;;;;;;40.03;21.50;;;;;;;-0.04;45.44;99911.97;1773095;79;21678;-60
2021/03/26 02:09:31;;;;;;;38.42;20.62;;;;;;;-0.06;45.51;99914.09;1770397;79;21623;-60
2021/03/26 02:12:10;;;;;;;40.65;20.72;;;;;;;-0.04;45.60;99918.83;1765509;79;21536;-61
2021/03/26 02:14:46;;;;;;;38.02;20.43;;;;;;;-0.07;45.72;99911.08;1774847;78;21951;-61
2021/03/26 02:17:16;;;;;;;39.35;20.17;;;;;;;-0.07;45.70;99917.55;1789258;77;21621;-61
2021/03/26 02:19:59;;;;;;;33.45;19.02;;;;;;;-0.08;45.70;99914.52;1766224;79;22580;-61
2021/03/26 02:22:29;;;;;;;37.53;19.65;;;;;;;-0.11;45.83;99919.69;1770820;79;21654;-63
2021/03/26 02:24:59;;;;;;;36.45;19.82;;;;;;;-0.09;45.63;99914.95;1740627;80;21800;-61
2021/03/26 02:27:34;;;;;;;35.30;19.92;;;;;;;-0.09;45.64;99912.80;1771105;77;22398;-62
2021/03/26 02:30:13;;;;;;;34.05;19.52;;;;;;;-0.12;45.77;99912.77;1780420;79;21478;-61
2021/03/26 02:32:46;;;;;;;36.93;19.92;;;;;;;-0.11;45.60;99917.95;1768416;79;21606;-61
2021/03/26 02:35:32;;;;;;;35.55;19.12;;;;;;;-0.10;45.65;99915.80;1739210;80;21694;-61
2021/03/26 02:38:29;;;;;;;32.28;18.12;;;;;;;-0.07;45.94;99920.98;1860713;76;23269;-63
2021/03/26 02:41:27;;;;;;;37.30;19.98;;;;;;;-0.14;45.76;99920.52;1826933;77;21647;-59
2021/03/26 02:44:13;;;;;;;34.43;18.30;;;;;;;-0.16;45.81;99917.06;1814036;77;22167;-59
2021/03/26 02:47:02;;;;;;;33.70;17.67;;;;;;;-0.16;45.84;99920.08;1827315;77;21600;-60
2021/03/26 02:50:07;;;;;;;35.45;19.10;;;;;;;-0.18;45.99;99918.78;1835140;77;21601;-60
2021/03/26 02:52:41;;;;;;;31.82;17.92;;;;;;;-0.16;45.83;99916.20;1768322;80;21640;-59
2021/03/26 02:55:34;;;;;;;38.23;19.23;;;;;;;-0.17;45.80;99914.06;1771120;80;21642;-60
2021/03/26 02:58:06;;;;;;;33.60;17.90;;;;;;;-0.17;45.92;99923.51;1792911;78;21918;-61
2021/03/26 03:00:42;;;;;;;30.72;17.02;;;;;;;-0.15;45.92;99928.25;1741630;80;21168;-60
2021/03/26 03:03:15;;;;;;;30.48;17.27;;;;;;;-0.14;45.85;99926.13;1777490;79;21571;-60
2021/03/26 03:05:47;;;;;;;31.33;17.00;;;;;;;-0.12;45.76;99930.43;1781874;79;21561;-60
2021/03/26 03:08:28;;;;;;;32.98;17.70;;;;;;;-0.11;45.82;99934.77;1767527;79;21614;-60
2021/03/26 03:11:12;;;;;;;33.83;17.00;;;;;;;-0.09;45.76;99929.16;1775869;79;21606;-60
2021/03/26 03:13:50;;;;;;;35.83;16.75;;;;;;;-0.06;45.72;99934.77;1778712;79;21611;-60
2021/03/26 03:16:44;;;;;;;33.08;16.62;;;;;;;-0.06;45.75;99930.48;1770516;79;21691;-60
2021/03/26 03:19:30;;;;;;;31.25;15.98;;;;;;;-0.07;45.70;99932.63;1782111;79;21645;-60
2021/03/26 03:22:04;;;;;;;29.42;17.20;;;;;;;-0.07;45.68;99935.64;1780919;79;21646;-60
2021/03/26 03:24:40;;;;;;;28.35;16.05;;;;;;;-0.10;45.73;99940.34;1765447;80;22101;-60
2021/03/26 03:27:34;;;;;;;30.82;15.78;;;;;;;-0.11;45.75;99938.64;1791387;78;21592;-61
2021/03/26 03:30:44;;;;;;;23.00;13.70;;;;;;;-0.12;45.91;99942.06;1803484;78;21551;-60
2021/03/26 03:33:37;;;;;;;27.62;14.63;;;;;;;-0.15;46.03;99943.36;1772631;78;21640;-60
2021/03/26 03:36:10;;;;;;;28.57;15.50;;;;;;;-0.21;46.08;99944.19;1755733;80;21622;-59
2021/03/26 03:38:58;;;;;;;29.00;15.08;;;;;;;-0.25;46.17;99951.90;1781125;78;21849;-59
2021/03/26 03:41:47;;;;;;;28.60;14.68;;;;;;;-0.25;46.36;99947.59;1762972;80;21661;-58
2021/03/26 03:44:33;;;;;;;26.73;15.28;;;;;;;-0.28;46.57;99955.78;1764582;79;21564;-60
2021/03/26 03:47:21;;;;;;;29.42;15.53;;;;;;;-0.31;46.64;99953.16;1755715;80;21647;-59
2021/03/26 03:50:03;;;;;;;28.25;15.63;;;;;;;-0.37;47.04;99959.59;1753729;80;21556;-59
2021/03/26 03:52:58;;;;;;;29.00;14.43;;;;;;;-0.43;47.19;99963.85;1767038;79;22110;-59
2021/03/26 03:55:37;;;;;;;30.30;14.85;;;;;;;-0.48;47.60;99959.07;1748911;80;21682;-59
2021/03/26 03:58:35;;;;;;;32.73;15.72;;;;;;;-0.50;47.47;99958.20;1769603;80;21146;-59
2021/03/26 04:01:36;;;;;;;26.87;15.03;;;;;;;-0.48;47.63;99957.78;1743911;80;21780;-60
2021/03/26 04:04:17;;;;;;;29.72;15.72;;;;;;;-0.44;47.76;99960.81;1769123;80;21985;-59
2021/03/26 04:07:00;;;;;;;30.02;15.83;;;;;;;-0.42;48.13;99965.56;1724129;80;22164;-59
2021/03/26 04:09:32;;;;;;;33.65;17.42;;;;;;;-0.49;48.87;99968.09;1742221;80;21610;-60
2021/03/26 04:12:09;;;;;;;29.10;16.27;;;;;;;-0.62;48.87;99947.36;1797129;78;21639;-59
2021/03/26 04:15:01;;;;;;;30.02;16.32;;;;;;;-0.44;49.52;99971.59;1851454;76;23202;-58
2021/03/26 04:17:42;;;;;;;30.62;16.37;;;;;;;-0.51;49.54;99970.70;1836659;77;21594;-59
2021/03/26 04:20:27;;;;;;;36.28;17.20;;;;;;;-0.47;49.67;99980.59;1783844;77;22161;-60
2021/03/26 04:23:05;;;;;;;28.60;17.60;;;;;;;-0.44;49.95;99985.80;1830086;77;21556;-60
2021/03/26 04:25:38;;;;;;;30.88;16.00;;;;;;;-0.42;50.04;99979.77;1820568;77;21528;-60
2021/03/26 04:28:21;;;;;;;37.67;17.02;;;;;;;-0.37;50.96;99978.53;1854980;76;22791;-59
2021/03/26 04:31:03;;;;;;;31.82;15.98;;;;;;;-0.41;50.84;99984.54;1839094;77;21567;-62
2021/03/26 04:33:39;;;;;;;24.67;14.35;;;;;;;-0.38;50.74;99984.97;1812015;77;21856;-65
2021/03/26 04:36:08;;;;;;;29.10;16.37;;;;;;;-0.37;50.99;99984.99;1831428;77;21590;-61
2021/03/26 04:38:58;;;;;;;31.05;16.70;;;;;;;-0.35;51.30;99986.30;1835844;77;21476;-60
2021/03/26 04:41:44;;;;;;;32.85;16.90;;;;;;;-0.31;51.36;99983.73;1840996;76;21562;-60
2021/03/26 04:44:21;;;;;;;35.58;17.75;;;;;;;-0.25;51.41;99995.39;1843901;77;21632;-64
2021/03/26 04:46:56;;;;;;;;;;;;;;;-0.22;51.43;99991.55;1827988;77;22093;-62
2021/03/26 04:49:45;;;;;;;30.48;18.87;;;;;;;-0.18;52.05;99996.31;1832502;77;20580;-61
2021/03/26 04:52:18;;;;;;;32.73;18.37;;;;;;;-0.18;52.40;99996.75;1804887;77;21615;-61
2021/03/26 04:55:12;;;;;;;31.80;18.60;;;;;;;-0.21;53.29;99998.87;1831460;77;21603;-59
2021/03/26 04:58:02;;;;;;;33.33;17.75;;;;;;;-0.13;52.69;100001.09;1834177;77;21535;-58
2021/03/26 05:00:43;;;;;;;30.62;15.95;;;;;;;-0.06;53.13;100003.27;1792793;78;22157;-59
2021/03/26 05:05:14;;;;;;;26.30;13.62;;;;;;;0.10;54.01;100005.09;1742035;79;23422;-60
2021/03/26 05:07:48;;;;;;;27.98;14.43;;;;;;;0.10;53.77;100007.69;1699179;82;21770;-60
2021/03/26 05:10:19;;;;;;;24.90;14.38;;;;;;;0.21;54.19;100007.75;1718502;82;22089;-60
2021/03/26 05:12:57;;;;;;;20.80;13.95;;;;;;;0.27;54.83;100006.48;1719609;82;21586;-62
2021/03/26 05:15:48;;;;;;;23.83;13.85;;;;;;;0.36;54.47;100009.55;1713456;81;21707;-61
2021/03/26 05:18:25;;;;;;;25.37;13.70;;;;;;;0.40;54.75;100006.11;1704691;81;21742;-65
2021/03/26 05:20:59;;;;;;;25.60;14.98;;;;;;;0.49;54.96;100003.56;1708896;82;21580;-58
2021/03/26 05:23:35;;;;;;;28.07;14.98;;;;;;;0.58;55.17;100007.89;1714512;81;22077;-61
2021/03/26 05:26:21;;;;;;;24.43;14.05;;;;;;;0.68;54.96;100004.90;1715308;82;21587;-60
2021/03/26 05:28:58;;;;;;;27.80;14.80;;;;;;;0.81;55.76;100020.93;1822280;75;22760;-58
2021/03/26 05:32:01;;;;;;;29.12;15.28;;;;;;;0.84;55.18;100019.63;1779446;77;21561;-60
2021/03/26 05:35:09;;;;;;;30.45;14.60;;;;;;;0.93;55.34;100016.20;1787509;79;21823;-62
2021/03/26 05:37:45;;;;;;;27.60;14.55;;;;;;;0.96;56.48;100014.90;1777363;79;21623;-58
2021/03/26 05:40:52;;;;;;;25.10;14.50;;;;;;;1.03;55.53;100023.13;1778813;77;21606;-61
2021/03/26 05:43:58;;;;;;;28.00;15.68;;;;;;;1.15;56.36;100024.89;1803751;76;23290;-58
2021/03/26 05:46:49;;;;;;;29.18;15.05;;;;;;;1.19;55.72;100021.84;1772008;78;21674;-62
2021/03/26 05:50:09;;;;;;;24.92;15.08;;;;;;;1.30;55.41;100024.91;1790608;77;23503;-59
2021/03/26 05:53:06;;;;;;;22.50;12.28;;;;;;;1.37;55.34;100025.76;1759940;78;21632;-59
2021/03/26 05:56:13;;;;;;;20.27;12.28;;;;;;;1.45;55.68;100027.05;1787014;79;21615;-60
2021/03/26 05:58:49;;;;;;;21.40;13.08;;;;;;;1.46;55.32;100025.77;1745779;79;21652;-63
2021/03/26 06:01:31;;;;;;;27.48;15.10;;;;;;;1.50;54.95;100026.19;1782437;79;21189;-60
2021/03/26 06:04:53;;;;;;;24.90;12.95;;;;;;;1.57;55.21;100031.41;1782692;79;21946;-60
2021/03/26 06:07:54;;;;;;;31.68;14.80;;;;;;;1.66;55.08;100032.25;1787222;79;21662;-59
2021/03/26 06:11:03;;;;;;;25.80;14.30;;;;;;;1.78;55.26;100032.67;1782727;79;21173;-61
2021/03/26 06:14:22;;;;;;;34.13;15.55;;;;;;;1.93;55.68;100030.50;1783534;79;21571;-61
2021/03/26 06:17:39;;;;;;;29.98;12.58;;;;;;;1.93;55.68;100030.50;1783031;77;21568;-65
2021/03/26 06:21:05;;;;;;;27.52;15.13;;;;;;;2.07;55.02;100033.06;1768948;77;21917;-60
2021/03/26 06:24:38;;;;;;;28.00;13.62;;;;;;;2.19;54.97;100031.75;1783807;79;21544;-63
2021/03/26 06:27:21;;;;;;;23.02;14.65;;;;;;;2.35;54.66;100028.66;1724020;82;21635;-60
2021/03/26 06:30:13;;;;;;;26.55;13.80;;;;;;;2.42;54.57;100036.01;1731421;80;21543;-60
2021/03/26 06:33:33;;;;;;;21.35;13.20;;;;;;;2.53;54.74;100036.84;1730118;81;21544;-64
2021/03/26 06:36:07;;;;;;;23.67;14.35;;;;;;;2.66;54.69;100041.55;1735134;81;21945;-62
2021/03/26 06:38:47;;;;;;;23.40;13.08;;;;;;;2.78;54.50;100036.28;1733830;81;21611;-63
2021/03/26 06:41:42;;;;;;;25.20;13.00;;;;;;;2.88;53.98;100034.09;1730479;81;21558;-62
2021/03/26 06:44:46;;;;;;;25.17;14.38;;;;;;;2.98;53.72;100032.73;1781029;79;21594;-61
2021/03/26 06:47:48;;;;;;;25.52;14.00;;;;;;;3.08;53.44;100034.40;1779073;79;21662;-60
2021/03/26 06:51:09;;;;;;;21.40;13.60;;;;;;;3.25;53.06;100028.65;1779407;79;21970;-60
2021/03/26 06:54:03;;;;;;;26.90;14.30;;;;;;;3.36;52.69;100032.93;1781665;79;21662;-61
2021/03/26 06:56:52;;;;;;;23.57;14.55;;;;;;;3.51;52.77;100031.06;1787812;79;21651;-61
2021/03/26 06:59:46;;;;;;;26.82;14.53;;;;;;;3.71;52.18;100035.23;1785862;79;21682;-60
2021/03/26 07:02:55;;;;;;;27.02;14.68;;;;;;;3.88;51.70;100029.88;1774072;77;21576;-60
2021/03/26 07:05:56;;;;;;;27.58;14.80;;;;;;;4.07;51.33;100035.34;1775388;77;22070;-60
2021/03/26 07:09:18;;;;;;;27.37;14.13;;;;;;;4.27;50.30;100028.61;1778195;79;21604;-58
2021/03/26 07:12:25;;;;;;;25.50;14.53;;;;;;;4.45;50.47;100034.52;1780086;79;21636;-60
2021/03/26 07:15:10;;;;;;;29.37;14.68;;;;;;;4.68;49.86;100042.05;1774726;79;21508;-60
2021/03/26 07:18:07;;;;;;;31.02;14.80;;;;;;;4.86;50.10;100040.97;1776413;79;21611;-60
2021/03/26 07:21:00;;;;;;;24.67;14.45;;;;;;;4.98;49.60;100035.57;1779663;79;21922;-61
2021/03/26 07:23:53;;;;;;;28.47;15.83;;;;;;;5.13;49.48;100035.80;1787436;79;21630;-59
2021/03/26 07:26:39;;;;;;;33.30;17.57;;;;;;;5.30;49.48;100034.70;1783292;78;21563;-58
2021/03/26 07:29:35;;;;;;;25.73;15.57;;;;;;;5.49;49.23;100041.80;1778263;79;21579;-62
2021/03/26 07:32:20;;;;;;;27.62;15.88;;;;;;;5.60;48.99;100041.19;1782764;78;21476;-63
2021/03/26 07:35:38;;;;;;;33.58;15.50;;;;;;;5.73;48.39;100042.70;1789113;79;22069;-61
2021/03/26 07:38:37;;;;;;;22.02;14.18;;;;;;;5.92;48.44;100045.86;1775801;79;22194;-60
2021/03/26 07:41:46;;;;;;;21.23;12.95;;;;;;;6.14;46.96;100045.08;1784536;79;21461;-60
2021/03/26 07:44:56;;;;;;;19.62;12.20;;;;;;;6.29;46.22;100050.47;1742093;81;21101;-60
2021/03/26 07:48:03;;;;;;;21.93;13.13;;;;;;;6.43;45.76;100047.13;1779848;78;21714;-60
2021/03/26 07:50:41;;;;;;;25.82;13.53;;;;;;;6.55;44.95;100046.02;1785194;78;21181;-63
2021/03/26 07:53:40;;;;;;;17.73;11.03;;;;;;;6.70;44.72;100043.54;1784286;78;21551;-60
2021/03/26 07:56:41;;;;;;;20.35;12.47;;;;;;;6.86;43.68;100047.17;1785473;77;21657;-59
2021/03/26 07:59:42;;;;;;;19.95;12.33;;;;;;;7.04;43.60;100054.59;1786501;78;21607;-60
2021/03/26 08:02:35;;;;;;;22.32;12.95;;;;;;;7.16;42.88;100049.11;1784469;78;21577;-60
2021/03/26 08:05:44;;;;;;;22.20;12.95;;;;;;;7.29;43.39;100054.92;1776490;78;22166;-63
2021/03/26 08:08:41;;;;;;;;;;;;;;;7.43;42.96;100058.52;1684781;83;21852;-62
2021/03/26 08:11:35;;;;;;;25.72;13.10;;;;;;;7.53;42.65;100060.47;1677998;83;20578;-60
2021/03/26 08:14:34;;;;;;;20.52;11.10;;;;;;;7.64;42.70;100057.14;1741758;79;21537;-61
2021/03/26 08:17:45;;;;;;;23.27;11.33;;;;;;;7.75;40.91;100057.75;1772009;78;21689;-62
2021/03/26 08:20:29;;;;;;;19.52;12.23;;;;;;;7.95;40.95;100065.58;1778439;78;21572;-65
2021/03/26 08:23:41;;;;;;;19.48;12.07;;;;;;;7.98;40.67;100061.09;1778214;78;21701;-61
2021/03/26 08:26:37;;;;;;;24.12;12.75;;;;;;;8.07;41.22;100066.55;1784620;78;21504;-61
2021/03/26 08:29:17;;;;;;;21.60;11.93;;;;;;;8.18;41.17;100059.27;1777554;78;21556;-62
2021/03/26 08:31:54;;;;;;;18.85;11.25;;;;;;;8.34;39.85;100064.98;1784498;77;21567;-62
2021/03/26 08:34:59;;;;;;;18.23;11.53;;;;;;;8.47;38.60;100062.89;1780552;78;22098;-63
2021/03/26 08:38:19;;;;;;;17.95;10.58;;;;;;;8.56;38.57;100062.64;1784719;78;21611;-62
2021/03/26 08:41:15;;;;;;;21.60;12.50;;;;;;;8.68;38.31;100061.47;1779240;78;21572;-62
2021/03/26 08:43:53;;;;;;;19.10;11.97;;;;;;;8.84;38.66;100057.94;1816286;76;23235;-62
2021/03/26 08:46:34;;;;;;;20.82;11.33;;;;;;;8.87;39.22;100056.55;1792761;79;21503;-62
2021/03/26 08:49:25;;;;;;;17.15;10.88;;;;;;;9.00;39.03;100062.73;1784834;79;21998;-61
2021/03/26 08:52:23;;;;;;;24.23;12.07;;;;;;;9.14;38.60;100063.19;1793792;79;21643;-62
2021/03/26 08:55:32;;;;;;;16.10;11.25;;;;;;;9.23;38.60;100059.41;1779417;77;21591;-61
2021/03/26 08:58:24;;;;;;;21.77;12.75;;;;;;;9.37;38.92;100069.03;1784891;79;21555;-64
2021/03/26 09:01:23;;;;;;;22.37;11.35;;;;;;;9.49;38.03;100067.36;1709346;79;21512;-63
2021/03/26 09:04:14;;;;;;;13.55;9.48;;;;;;;9.58;38.76;100066.18;1789587;79;21666;-61
2021/03/26 09:07:34;;;;;;;19.85;12.58;;;;;;;9.73;38.02;100069.62;1783950;79;21639;-61
2021/03/26 09:10:41;;;;;;;20.43;11.38;;;;;;;9.74;38.02;100071.81;1711366;81;21690;-61
2021/03/26 09:13:40;;;;;;;20.23;12.43;;;;;;;9.80;38.10;100068.98;1717691;81;22509;-60
2021/03/26 09:16:19;;;;;;;18.25;11.22;;;;;;;9.86;38.21;100073.17;1708690;81;21134;-62
2021/03/26 09:18:58;;;;;;;23.15;13.03;;;;;;;10.02;37.96;100070.45;1720973;81;22067;-61
2021/03/26 09:21:47;;;;;;;21.48;11.10;;;;;;;10.12;37.76;100068.36;1707348;81;21588;-61
2021/03/26 09:24:51;;;;;;;20.20;11.63;;;;;;;10.21;36.78;100068.48;1715503;81;21149;-61
2021/03/26 09:27:48;;;;;;;21.93;11.30;;;;;;;10.27;37.09;100070.92;1702280;82;21113;-63
2021/03/26 09:30:30;;;;;;;18.87;11.48;;;;;;;10.38;36.55;100066.17;1715492;81;27048;-62
2021/03/26 09:33:09;;;;;;;19.67;11.68;;;;;;;10.41;36.75;100062.58;1713116;82;21603;-62
2021/03/26 09:35:48;;;;;;;16.07;9.55;;;;;;;10.48;37.08;100057.50;1718839;81;21568;-63
2021/03/26 09:38:33;;;;;;;18.07;10.25;;;;;;;10.65;36.08;100066.09;1714784;81;21588;-61
2021/03/26 09:41:43;;;;;;;18.15;10.53;;;;;;;10.70;36.18;100062.85;1713011;81;21615;-62
2021/03/26 09:44:42;;;;;;;12.85;9.55;;;;;;;10.76;36.06;100065.25;1711338;81;21592;-63
2021/03/26 09:47:21;;;;;;;15.53;10.65;;;;;;;10.86;34.74;100063.13;1716190;81;21954;-62
2021/03/26 09:50:22;;;;;;;11.90;8.23;;;;;;;10.94;35.73;100067.64;1715158;82;21619;-62
2021/03/26 09:52:50;;;;;;;12.70;8.90;;;;;;;11.03;34.00;100071.23;1712315;82;21236;-62
2021/03/26 09:55:23;;;;;;;14.15;7.75;;;;;;;11.09;34.43;100068.40;1715503;82;21619;-62
2021/03/26 09:58:36;;;;;;;17.32;9.85;;;;;;;11.13;33.51;100075.69;1712724;81;21513;-61
2021/03/26 10:01:27;;;;;;;15.85;9.53;;;;;;;11.15;33.57;100061.16;1855629;75;23179;-62
2021/03/26 10:04:09;;;;;;;13.18;9.88;;;;;;;11.14;34.28;100068.20;1823360;77;21550;-62
2021/03/26 10:06:52;;;;;;;15.60;10.15;;;;;;;11.25;33.67;100069.97;1826801;77;21938;-59
2021/03/26 10:12:25;;;;;;;13.78;9.25;;;;;;;11.37;33.84;100066.45;1874213;76;23167;-59
2021/03/26 10:15:00;;;;;;;15.72;9.78;;;;;;;11.39;33.39;100067.25;1817315;76;21614;-63
2021/03/26 10:18:00;;;;;;;19.00;10.95;;;;;;;11.35;33.89;100060.39;1819703;77;21889;-63
2021/03/26 10:20:35;;;;;;;16.30;10.43;;;;;;;11.40;33.86;100057.13;1841090;76;21560;-60
2021/03/26 10:23:39;;;;;;;14.95;10.70;;;;;;;11.50;33.98;100055.83;1823688;75;21631;-61
2021/03/26 10:26:33;;;;;;;16.27;9.90;;;;;;;11.58;33.57;100055.05;1829146;75;21595;-61
2021/03/26 10:29:40;;;;;;;14.07;9.10;;;;;;;11.64;33.57;100059.22;1814679;77;21106;-59
2021/03/26 10:32:31;;;;;;;13.98;9.88;;;;;;;11.71;33.06;100051.47;1809722;77;23885;-62
2021/03/26 10:35:20;;;;;;;15.30;10.38;;;;;;;11.82;33.74;100047.08;1846348;77;21177;-61
2021/03/26 10:38:03;;;;;;;13.08;9.95;;;;;;;11.98;33.96;100051.27;1846517;77;21650;-61
2021/03/26 10:41:01;;;;;;;17.50;10.40;;;;;;;12.06;33.78;100048.72;1829002;76;21647;-58
2021/03/26 10:43:34;;;;;;;;;;;;;;;12.01;33.01;100045.88;1835626;77;21564;-58
2021/03/26 10:46:12;;;;;;;15.78;9.50;;;;;;;11.97;33.73;100043.84;1829771;75;20575;-62
2021/03/26 10:49:18;;;;;;;14.03;9.05;;;;;;;12.04;34.08;100047.08;1770608;78;21678;-63
2021/03/26 10:51:56;;;;;;;13.58;8.65;;;;;;;12.14;33.23;100051.50;1790028;78;21967;-61
2021/03/26 10:54:52;;;;;;;11.38;7.78;;;;;;;12.11;33.70;100054.25;1771135;80;21684;-60
2021/03/26 10:57:39;;;;;;;9.55;6.72;;;;;;;12.14;32.85;100056.30;1789280;77;21695;-64
2021/03/26 11:00:20;;;;;;;;;;;;;;;12.24;31.31;100051.48;1753542;80;22102;-63
2021/03/26 11:03:22;;;;;;;9.05;6.53;;;;;;;12.38;31.57;100048.27;1772049;79;20567;-67
2021/03/26 11:05:56;;;;;;;9.20;6.15;;;;;;;12.39;31.58;100050.81;1771760;78;21670;-60
2021/03/26 11:08:44;;;;;;;13.30;6.50;;;;;;;12.45;30.32;100040.45;1792836;78;21578;-62
2021/03/26 11:11:27;;;;;;;7.95;6.33;;;;;;;12.53;31.11;100044.95;1791410;77;21275;-66
2021/03/26 11:14:17;;;;;;;9.33;6.65;;;;;;;12.62;31.19;100042.34;1771901;78;21647;-63
2021/03/26 11:16:52;;;;;;;8.08;5.97;;;;;;;12.73;30.82;100040.08;1793939;77;21590;-66
2021/03/26 11:19:28;;;;;;;7.78;5.35;;;;;;;12.81;30.78;100044.56;1821503;77;21287;-66
2021/03/26 11:22:06;;;;;;;8.30;4.97;;;;;;;12.90;30.97;100039.30;1816474;77;21568;-65
2021/03/26 11:24:42;;;;;;;8.70;5.75;;;;;;;12.98;30.21;100039.83;1822243;77;22175;-68
2021/03/26 11:27:18;;;;;;;6.60;5.40;;;;;;;12.96;29.24;100038.16;1820568;77;21536;-65
2021/03/26 11:29:52;;;;;;;7.22;6.08;;;;;;;12.89;29.77;100031.02;1814731;77;21638;-64
2021/03/26 11:32:25;;;;;;;19.40;6.78;;;;;;;12.90;29.62;100035.34;1811029;77;21698;-63
2021/03/26 11:35:06;;;;;;;14.63;6.65;;;;;;;12.91;30.03;100030.47;1817442;77;21635;-64
2021/03/26 11:38:01;;;;;;;9.78;7.50;;;;;;;12.97;29.88;100030.66;1821975;77;21638;-65
2021/03/26 11:40:48;;;;;;;9.53;6.65;;;;;;;13.03;29.46;100027.72;1813800;77;21609;-66
2021/03/26 11:43:21;;;;;;;9.63;7.12;;;;;;;13.03;29.60;100029.04;1820012;77;21651;-65
2021/03/26 11:46:10;;;;;;;9.53;6.08;;;;;;;13.10;30.02;100018.59;1805278;77;21475;-64
2021/03/26 11:49:18;;;;;;;9.83;6.17;;;;;;;13.23;29.87;100017.55;1819940;77;21811;-64
2021/03/26 11:52:12;;;;;;;8.00;5.90;;;;;;;13.30;29.25;100018.09;1825162;76;21606;-65
2021/03/26 11:55:02;;;;;;;7.95;5.72;;;;;;;13.17;28.70;100020.02;1815139;77;21892;-67
2021/03/26 11:57:48;;;;;;;9.80;6.65;;;;;;;13.15;29.31;100018.39;1811487;77;21540;-67
2021/03/26 12:00:27;;;;;;;9.05;6.53;;;;;;;13.27;29.40;100014.30;1821804;77;21567;-66
2021/03/26 12:03:21;;;;;;;9.25;6.30;;;;;;;13.37;29.76;100019.55;1812363;77;21694;-65
2021/03/26 12:06:08;;;;;;;7.08;6.28;;;;;;;13.52;29.41;100013.51;1820341;77;21687;-67
2021/03/26 12:09:16;;;;;;;8.65;5.67;;;;;;;13.62;29.56;100005.54;1820420;77;23853;-67
2021/03/26 12:11:55;;;;;;;5.67;4.87;;;;;;;13.67;29.45;100002.66;1812330;77;21672;-66
2021/03/26 12:14:40;;;;;;;6.03;4.28;;;;;;;13.73;29.77;100011.62;1813408;77;21622;-70
2021/03/26 12:17:23;;;;;;;7.87;4.78;;;;;;;13.72;29.90;100007.25;1814193;77;21591;-67
2021/03/26 12:20:00;;;;;;;10.93;4.22;;;;;;;13.74;30.35;100007.18;1817183;77;21559;-62
2021/03/26 12:22:41;;;;;;;5.30;4.10;;;;;;;13.79;30.18;99995.92;1819916;77;21952;-69
2021/03/26 12:25:18;;;;;;;6.92;4.05;;;;;;;13.76;30.47;100008.80;1811914;77;21543;-69
2021/03/26 12:27:49;;;;;;;7.08;3.90;;;;;;;13.82;30.22;100002.35;1821901;77;21564;-68
2021/03/26 12:30:35;;;;;;;7.05;3.60;;;;;;;13.79;29.96;99998.56;1813446;77;21684;-69
2021/03/26 12:33:09;;;;;;;4.03;3.10;;;;;;;13.85;30.14;99996.08;1817262;77;21655;-60
2021/03/26 12:35:51;;;;;;;6.72;3.27;;;;;;;13.91;30.38;99999.72;1815304;77;22036;-62
2021/03/26 12:39:00;;;;;;;3.98;3.15;;;;;;;14.05;30.13;100005.14;1736647;80;21628;-60
2021/03/26 12:41:45;;;;;;;5.35;3.35;;;;;;;14.14;29.18;99999.86;1750994;80;21243;-62
2021/03/26 12:44:36;;;;;;;4.22;3.55;;;;;;;14.35;29.32;100001.84;1762203;80;21559;-62
2021/03/26 12:47:31;;;;;;;6.12;2.92;;;;;;;14.57;29.13;99997.14;1753355;80;21620;-62
2021/03/26 12:50:13;;;;;;;5.47;2.77;;;;;;;14.83;28.84;99994.05;1782687;78;22091;-62
2021/03/26 12:52:58;;;;;;;4.10;3.42;;;;;;;15.02;28.96;99998.70;1758853;78;21580;-59